Carmencita — LAEV7 — position and weather

sailwx.info

Track history (hours):
 
Tides and Currents Weather Stations Pressure Air Temp Water Temp Dewpoint Dewpoint Depression Visibility Wind Speed Wind Dir Waves Ship Positions

Carmencita

Last reported at 2018-Aug-18 12:14 UTC. Time now 2018-Aug-20 16:21 UTC.
Position N 38°46' E 119°14'.

Length 185 m; draft 6.3 m.

Type: Cargo ship. MMSI: 259741000.

Date/timePositionNaut miles runAvg speedWind from/ knotsBaromVisibWave heightAir tempDewpointWater temp
2018-Aug-18 12:14N 38°46' E 119°14'2 9.0
2018-Aug-18 12:00N 38°45' E 119°12'510.9
2018-Aug-18 11:30N 38°45' E 119°05'612.3
2018-Aug-18 11:00N 38°46' E 118°57'611.9
2018-Aug-18 10:30N 38°47' E 118°50'611.4
2018-Aug-18 10:00N 38°47' E 118°42'510.9
2018-Aug-18 09:30N 38°48' E 118°35'510.5
2018-Aug-18 09:00N 38°49' E 118°29'510.6
2018-Aug-18 08:30N 38°49' E 118°22'510.4
2018-Aug-18 08:00N 38°50' E 118°15'5 9.7
2018-Aug-18 07:30N 38°52' E 118°10'  
2018-Aug-15 21:40N 38°42' E 120°05'211.7
2018-Aug-15 21:30N 38°41' E 120°08'611.8
2018-Aug-15 21:00N 38°41' E 120°15'612.1
2018-Aug-15 20:30N 38°40' E 120°23'4811.8
2018-Aug-15 16:24N 38°24' E 121°21'411.2
2018-Aug-15 16:00N 38°22' E 121°26'  
Track history (hours):
 
Tides and Currents Weather Stations Pressure Air Temp Water Temp Dewpoint Dewpoint Depression Visibility Wind Speed Wind Dir Waves Ship Positions

Carmencita

Last reported at 2018-Aug-18 12:14 UTC. Time now 2018-Aug-20 16:21 UTC.
Position N 38°46' E 119°14'.

Length 185 m; draft 6.3 m.

Type: Cargo ship. MMSI: 259741000.

Date/timePositionNaut miles runAvg speedWind from/ knotsBaromVisibWave heightAir tempDewpointWater temp
2018-Aug-18 12:14N 38°46' E 119°14'2 9.0
2018-Aug-18 12:00N 38°45' E 119°12'510.9
2018-Aug-18 11:30N 38°45' E 119°05'612.3
2018-Aug-18 11:00N 38°46' E 118°57'611.9
2018-Aug-18 10:30N 38°47' E 118°50'611.4
2018-Aug-18 10:00N 38°47' E 118°42'510.9
2018-Aug-18 09:30N 38°48' E 118°35'510.5
2018-Aug-18 09:00N 38°49' E 118°29'510.6
2018-Aug-18 08:30N 38°49' E 118°22'510.4
2018-Aug-18 08:00N 38°50' E 118°15'5 9.7
2018-Aug-18 07:30N 38°52' E 118°10'  
2018-Aug-15 21:40N 38°42' E 120°05'211.7
2018-Aug-15 21:30N 38°41' E 120°08'611.8
2018-Aug-15 21:00N 38°41' E 120°15'612.1
2018-Aug-15 20:30N 38°40' E 120°23'4811.8
2018-Aug-15 16:24N 38°24' E 121°21'411.2
2018-Aug-15 16:00N 38°22' E 121°26'  

Dump ship's entire track history